VA73 weather

Mazza Airport
Matoaca, Virginia, United States

Public forecast

Using degrees Fahrenheit for public forecast. Weather courtesy of forecast.io.

METAR (pilot weather report)

Closest report is Dinwiddie County Airport, 3.7 nm (6.9 km) S. Retrieved 2019/06/18 10:35 UTC (23 minutes ago):

KPTB 181035Z AUTO 27003KT 7SM BKN100 22/20 A2999 RMK AO2 T02150200

TAF (pilot weather forecast)

Closest forecast is Richmond International Airport, 17.7 nm (32.8 km) NNE. Retrieved 2019/06/18 06:51 UTC (4 hours ago):

TAF KRIC 180548Z 1806/1906 20005KT P6SM BKN250 FM181400 22010KT P6SM SCT050 FM181900 23008KT P6SM VCSH BKN050 FM190000 10005KT 5SM SHRA BR OVC030